createdAt,value
2022-12-23T00:01:24.981Z,5.53
2022-12-23T00:03:52.587Z,4.23
2022-12-23T00:06:20.443Z,4.60
2022-12-23T00:08:47.304Z,4.53
2022-12-23T00:11:18.004Z,4.40
2022-12-23T00:14:04.899Z,4.47
2022-12-23T00:16:31.645Z,4.77
2022-12-23T00:18:58.219Z,4.13
2022-12-23T00:21:24.683Z,4.10
2022-12-23T00:23:51.724Z,4.40
2022-12-23T00:26:24.207Z,4.80
2022-12-23T00:28:51.401Z,5.20
2022-12-23T00:31:19.420Z,4.77
2022-12-23T00:33:48.150Z,4.10
2022-12-23T00:36:19.298Z,4.17
2022-12-23T00:39:04.744Z,4.63
2022-12-23T00:41:50.131Z,4.30
2022-12-23T00:44:16.798Z,4.80
2022-12-23T00:46:43.322Z,4.20
2022-12-23T00:49:32.487Z,4.20
2022-12-23T00:51:59.801Z,5.00
2022-12-23T00:54:26.693Z,4.13
2022-12-23T00:56:53.647Z,4.63
2022-12-23T00:59:20.179Z,4.70
2022-12-23T01:02:05.804Z,4.30
2022-12-23T01:04:51.212Z,4.67
2022-12-23T01:07:17.919Z,4.73
2022-12-23T01:09:44.602Z,4.77
2022-12-23T01:12:11.911Z,4.50
2022-12-23T01:14:38.746Z,5.03
2022-12-23T01:17:06.645Z,5.17
2022-12-23T01:19:33.416Z,5.30
2022-12-23T01:21:59.986Z,5.77
2022-12-23T01:24:30.919Z,4.70
2022-12-23T01:26:57.908Z,5.03
2022-12-23T01:29:24.843Z,5.53
2022-12-23T01:31:51.410Z,5.60
2022-12-23T01:34:18.375Z,6.33
2022-12-23T01:36:44.916Z,5.90
2022-12-23T01:39:11.612Z,5.80
2022-12-23T01:41:56.912Z,5.43
2022-12-23T01:45:00.953Z,5.87
2022-12-23T01:47:40.129Z,5.73
2022-12-23T01:50:09.985Z,6.03
2022-12-23T01:52:45.719Z,6.03
2022-12-23T01:55:14.432Z,6.97
2022-12-23T01:57:42.572Z,6.00
2022-12-23T02:00:28.819Z,5.93
2022-12-23T02:03:14.391Z,6.13
2022-12-23T02:05:44.677Z,6.50
2022-12-23T02:08:31.175Z,6.10
2022-12-23T02:11:25.137Z,6.00
2022-12-23T02:14:15.474Z,6.60
2022-12-23T02:16:56.043Z,6.40
2022-12-23T02:19:39.885Z,6.33
2022-12-23T02:22:33.955Z,6.73
2022-12-23T02:25:45.433Z,6.97
2022-12-23T02:28:38.610Z,7.27
2022-12-23T02:31:12.047Z,7.40
2022-12-23T02:33:38.587Z,7.83
2022-12-23T02:36:18.315Z,7.37
2022-12-23T02:39:03.648Z,7.83
2022-12-23T02:41:40.488Z,8.47
2022-12-23T02:44:25.912Z,7.60
2022-12-23T02:47:00.645Z,7.70
2022-12-23T02:49:56.439Z,7.63
2022-12-23T02:52:28.907Z,8.50
2022-12-23T02:55:05.608Z,9.03
2022-12-23T02:57:37.258Z,8.67
2022-12-23T03:00:06.601Z,9.10
2022-12-23T03:02:36.383Z,8.50
2022-12-23T03:05:03.892Z,8.83
2022-12-23T03:07:39.138Z,9.57
2022-12-23T03:10:32.492Z,9.07
2022-12-23T03:13:01.717Z,9.67
2022-12-23T03:15:35.648Z,8.90
2022-12-23T03:18:09.563Z,8.87
2022-12-23T03:21:04.600Z,8.53
2022-12-23T03:23:43.727Z,9.00
2022-12-23T03:26:23.678Z,9.33
2022-12-23T03:29:08.665Z,10.27
2022-12-23T03:31:37.846Z,9.67
2022-12-23T03:34:11.622Z,8.97
2022-12-23T03:36:50.382Z,9.63
2022-12-23T03:39:21.740Z,9.30
2022-12-23T03:41:55.178Z,9.27
2022-12-23T03:44:28.174Z,9.27
2022-12-23T03:47:10.072Z,10.13
2022-12-23T03:50:11.325Z,10.40
2022-12-23T03:52:42.719Z,10.40
2022-12-23T03:55:17.228Z,11.77
2022-12-23T03:57:58.339Z,11.03
2022-12-23T04:00:29.835Z,11.37
2022-12-23T04:03:02.699Z,12.20
2022-12-23T04:05:38.102Z,11.97
2022-12-23T04:08:19.535Z,11.10
2022-12-23T04:10:46.950Z,11.87
2022-12-23T04:13:13.425Z,11.60
2022-12-23T04:15:41.603Z,10.97
2022-12-23T04:18:10.418Z,12.07
2022-12-23T04:20:37.681Z,11.07
2022-12-23T04:23:04.684Z,11.13
2022-12-23T04:25:31.370Z,10.53
2022-12-23T04:27:57.825Z,11.50
2022-12-23T04:30:28.138Z,10.57
2022-12-23T04:33:00.516Z,10.27
2022-12-23T04:35:30.477Z,10.23
2022-12-23T04:37:57.066Z,10.10
2022-12-23T04:40:23.691Z,10.60
2022-12-23T04:42:50.269Z,10.10
2022-12-23T04:45:16.896Z,9.73
2022-12-23T04:47:43.459Z,10.53
2022-12-23T04:50:14.720Z,10.17
2022-12-23T04:52:41.957Z,9.67
2022-12-23T04:55:09.716Z,9.87
2022-12-23T04:57:36.221Z,9.37
2022-12-23T05:00:04.082Z,9.23
2022-12-23T05:02:30.653Z,9.07
2022-12-23T05:04:57.297Z,8.60
2022-12-23T05:07:23.787Z,8.77
2022-12-23T05:09:50.310Z,8.57
2022-12-23T05:12:17.173Z,8.97
2022-12-23T05:14:43.640Z,9.27
2022-12-23T05:17:10.197Z,10.67
2022-12-23T05:19:36.657Z,9.43
2022-12-23T05:22:03.118Z,9.60
2022-12-23T05:24:29.622Z,10.57
2022-12-23T05:27:00.073Z,9.97
2022-12-23T05:29:27.221Z,9.93
2022-12-23T05:31:53.963Z,9.60
2022-12-23T05:34:20.759Z,10.20
2022-12-23T05:36:47.262Z,9.33
2022-12-23T05:39:13.989Z,9.47
2022-12-23T05:41:40.554Z,9.20
2022-12-23T05:44:07.058Z,9.17
2022-12-23T05:46:33.936Z,8.83
2022-12-23T05:49:00.560Z,9.07
2022-12-23T05:51:27.104Z,9.50
2022-12-23T05:53:53.661Z,9.53
2022-12-23T05:56:20.184Z,9.73
2022-12-23T05:58:46.672Z,10.37
2022-12-23T06:01:14.126Z,9.33
2022-12-23T06:03:40.857Z,9.00
2022-12-23T06:06:07.529Z,10.30
2022-12-23T06:08:34.089Z,9.63
2022-12-23T06:11:00.561Z,10.13
2022-12-23T06:13:27.039Z,10.33
2022-12-23T06:15:53.552Z,11.93
2022-12-23T06:18:20.075Z,11.23
2022-12-23T06:20:47.663Z,10.97
2022-12-23T06:23:14.552Z,11.40
2022-12-23T06:25:41.047Z,11.57
2022-12-23T06:28:08.096Z,11.70
2022-12-23T06:30:35.084Z,11.80
2022-12-23T06:33:01.554Z,12.23
2022-12-23T06:35:28.276Z,12.60
2022-12-23T06:37:54.807Z,11.80
2022-12-23T06:40:21.354Z,12.60
2022-12-23T06:42:48.281Z,12.07
2022-12-23T06:45:14.848Z,11.80
2022-12-23T06:47:41.728Z,13.07
2022-12-23T06:50:09.201Z,12.67
2022-12-23T06:52:35.745Z,11.97
2022-12-23T06:55:02.273Z,12.13
2022-12-23T06:57:28.790Z,12.80
2022-12-23T06:59:55.604Z,11.93
2022-12-23T07:02:22.233Z,11.30
2022-12-23T07:04:48.808Z,12.07
2022-12-23T07:07:15.281Z,11.83
2022-12-23T07:09:41.746Z,12.03
2022-12-23T07:12:08.734Z,12.47
2022-12-23T07:14:35.615Z,12.50
2022-12-23T07:17:02.128Z,12.47
2022-12-23T07:19:28.848Z,11.83
2022-12-23T07:21:55.362Z,12.43
2022-12-23T07:24:21.832Z,12.30
2022-12-23T07:26:48.786Z,12.80
2022-12-23T07:29:15.328Z,12.30
2022-12-23T07:31:42.133Z,11.23
2022-12-23T07:34:09.462Z,11.57
2022-12-23T07:36:35.922Z,11.40
2022-12-23T07:39:02.431Z,11.67
2022-12-23T07:41:28.964Z,11.83
2022-12-23T07:43:55.473Z,11.60
2022-12-23T07:46:22.508Z,11.20
2022-12-23T07:48:49.069Z,11.13
2022-12-23T07:51:15.852Z,11.13
2022-12-23T07:53:42.367Z,10.33
2022-12-23T07:56:08.988Z,11.13
2022-12-23T07:58:35.475Z,10.10
2022-12-23T08:01:04.754Z,10.37
2022-12-23T08:03:31.953Z,9.87
2022-12-23T08:06:02.613Z,9.43
2022-12-23T08:08:29.462Z,10.17
2022-12-23T08:11:08.297Z,10.10
2022-12-23T08:13:37.427Z,9.10
2022-12-23T08:16:05.241Z,9.50
2022-12-23T08:18:36.897Z,9.97
2022-12-23T08:21:10.576Z,10.23
2022-12-23T08:23:37.126Z,11.10
2022-12-23T08:26:05.564Z,9.70
2022-12-23T08:28:32.602Z,10.17
2022-12-23T08:31:14.171Z,10.17
2022-12-23T08:33:42.819Z,11.10
2022-12-23T08:36:16.293Z,9.97
2022-12-23T08:38:47.284Z,10.03
2022-12-23T08:41:22.119Z,9.97
2022-12-23T08:43:48.933Z,10.73
2022-12-23T08:46:15.529Z,9.53
2022-12-23T08:48:48.629Z,9.63
2022-12-23T08:51:17.243Z,8.73
2022-12-23T08:53:44.506Z,10.30
2022-12-23T08:56:14.375Z,9.80
2022-12-23T08:58:43.787Z,10.17
2022-12-23T09:01:12.942Z,10.03
2022-12-23T09:03:42.283Z,9.73
2022-12-23T09:06:21.850Z,10.80
2022-12-23T09:08:51.995Z,10.33
2022-12-23T09:11:20.950Z,10.63
2022-12-23T09:13:48.020Z,10.43
2022-12-23T09:16:15.628Z,10.30
2022-12-23T09:18:42.194Z,11.20
2022-12-23T09:21:13.849Z,10.03
2022-12-23T09:23:41.092Z,9.80
2022-12-23T09:26:08.634Z,9.80
2022-12-23T09:28:35.191Z,9.73
2022-12-23T09:31:12.423Z,10.23
2022-12-23T09:33:39.569Z,9.90
2022-12-23T09:36:07.397Z,10.27
2022-12-23T09:38:34.301Z,9.53
2022-12-23T09:41:10.252Z,9.90
2022-12-23T09:43:58.622Z,10.17
2022-12-23T09:46:28.609Z,10.10
2022-12-23T09:49:02.646Z,9.67
2022-12-23T09:51:30.646Z,9.40
2022-12-23T09:54:18.226Z,9.57
2022-12-23T09:57:03.197Z,9.13
2022-12-23T09:59:57.721Z,9.37
2022-12-23T10:02:30.470Z,9.00
2022-12-23T10:05:43.460Z,10.00
2022-12-23T10:08:12.988Z,8.50
2022-12-23T10:10:47.263Z,10.73
2022-12-23T10:13:19.862Z,9.83
2022-12-23T10:15:49.175Z,9.53
2022-12-23T10:18:25.245Z,9.20
2022-12-23T10:20:59.949Z,8.60
2022-12-23T10:23:42.903Z,8.97
2022-12-23T10:26:31.892Z,9.43
2022-12-23T10:29:19.678Z,8.20
2022-12-23T10:32:28.104Z,8.13
2022-12-23T10:35:12.990Z,9.00
2022-12-23T10:37:51.810Z,8.83
2022-12-23T10:40:46.752Z,10.23
2022-12-23T10:43:25.687Z,8.93
2022-12-23T10:46:07.397Z,8.53
2022-12-23T10:48:36.731Z,9.33
2022-12-23T10:51:09.998Z,8.57
2022-12-23T10:53:45.528Z,9.37
2022-12-23T10:56:13.532Z,8.70
2022-12-23T10:58:46.007Z,8.80
2022-12-23T11:01:25.666Z,7.93
2022-12-23T11:04:00.214Z,8.83
2022-12-23T11:06:33.125Z,8.07
2022-12-23T11:09:02.611Z,8.10
2022-12-23T11:12:01.408Z,8.67
2022-12-23T11:14:43.125Z,8.07
2022-12-23T11:17:18.957Z,8.10
2022-12-23T11:19:45.466Z,8.13
2022-12-23T11:22:23.744Z,8.13
2022-12-23T11:24:50.985Z,8.00
2022-12-23T11:27:18.049Z,9.80
2022-12-23T11:29:54.581Z,10.43
2022-12-23T11:32:24.908Z,9.67
2022-12-23T11:34:52.448Z,8.17
2022-12-23T11:37:41.753Z,9.43
2022-12-23T11:40:24.244Z,8.73
2022-12-23T11:42:58.097Z,8.63
2022-12-23T11:45:28.137Z,8.47
2022-12-23T11:47:56.203Z,7.83
2022-12-23T11:50:30.936Z,7.73
2022-12-23T11:53:18.617Z,7.63
2022-12-23T11:56:13.683Z,6.57
2022-12-23T11:58:48.094Z,6.30
2022-12-23T12:01:20.455Z,6.37
2022-12-23T12:03:50.380Z,6.53
2022-12-23T12:06:19.616Z,5.87
2022-12-23T12:08:50.339Z,6.03
2022-12-23T12:11:38.203Z,5.43
2022-12-23T12:14:07.973Z,5.13
2022-12-23T12:16:40.200Z,5.73
2022-12-23T12:19:13.085Z,5.30
2022-12-23T12:21:39.750Z,5.33
2022-12-23T12:24:25.558Z,5.63
2022-12-23T12:26:57.521Z,5.13
2022-12-23T12:29:48.824Z,4.93
2022-12-23T12:32:33.050Z,5.53
2022-12-23T12:35:06.508Z,5.10
2022-12-23T12:37:58.903Z,4.50
2022-12-23T12:40:36.233Z,4.40
2022-12-23T12:43:21.172Z,5.10
2022-12-23T12:46:16.477Z,4.50
2022-12-23T12:48:54.138Z,4.40
2022-12-23T12:51:34.106Z,4.60
2022-12-23T12:54:13.136Z,4.63
2022-12-23T12:56:49.909Z,4.00
2022-12-23T12:59:19.448Z,4.07
2022-12-23T13:01:57.071Z,4.03
2022-12-23T13:04:40.351Z,4.40
2022-12-23T13:07:31.936Z,4.50
2022-12-23T13:10:12.518Z,3.53
2022-12-23T13:13:04.346Z,3.87
2022-12-23T13:15:48.477Z,4.10
2022-12-23T13:18:36.076Z,3.83
2022-12-23T13:21:10.380Z,4.10
2022-12-23T13:24:16.080Z,4.50
2022-12-23T13:27:01.405Z,4.57
2022-12-23T13:30:12.191Z,4.30
2022-12-23T13:33:06.855Z,4.37
2022-12-23T13:35:52.236Z,4.53
2022-12-23T13:38:56.364Z,4.20
2022-12-23T13:41:31.777Z,3.80
2022-12-23T13:44:01.460Z,3.67
2022-12-23T13:46:52.221Z,3.57
2022-12-23T13:49:31.480Z,3.67
2022-12-23T13:52:11.592Z,2.90
2022-12-23T13:55:20.148Z,2.83
2022-12-23T13:57:58.407Z,2.80
2022-12-23T14:00:31.983Z,2.87
2022-12-23T14:03:00.369Z,2.80
2022-12-23T14:05:38.873Z,2.00
2022-12-23T14:08:26.584Z,2.03
2022-12-23T14:11:15.916Z,2.40
2022-12-23T14:14:03.669Z,1.70
2022-12-23T14:16:50.860Z,2.17
2022-12-23T14:19:43.336Z,2.10
2022-12-23T14:22:36.973Z,1.80
2022-12-23T14:25:22.649Z,2.10
2022-12-23T14:28:13.438Z,1.90
2022-12-23T14:30:45.044Z,2.10
2022-12-23T14:33:20.869Z,1.80
2022-12-23T14:35:47.321Z,1.60
2022-12-23T14:38:14.735Z,1.70
2022-12-23T14:40:52.243Z,1.97
2022-12-23T14:43:25.893Z,1.93
2022-12-23T14:45:53.099Z,1.83
2022-12-23T14:48:34.820Z,1.80
2022-12-23T14:51:20.125Z,2.17
2022-12-23T14:53:52.658Z,1.50
2022-12-23T14:56:19.138Z,2.10
2022-12-23T14:58:54.341Z,1.70
2022-12-23T15:01:31.682Z,1.87
2022-12-23T15:04:01.858Z,1.90
2022-12-23T15:06:43.001Z,2.00
2022-12-23T15:09:21.006Z,1.80
2022-12-23T15:11:48.117Z,1.73
2022-12-23T15:14:25.363Z,1.80
2022-12-23T15:16:51.905Z,1.80
2022-12-23T15:19:23.428Z,2.13
2022-12-23T15:21:59.577Z,2.40
2022-12-23T15:24:26.985Z,2.60
2022-12-23T15:27:17.870Z,2.50
2022-12-23T15:29:47.069Z,2.70
2022-12-23T15:32:13.760Z,3.50
2022-12-23T15:34:41.372Z,3.87
2022-12-23T15:37:12.378Z,3.70
2022-12-23T15:39:43.949Z,4.20
2022-12-23T15:42:31.338Z,5.20
2022-12-23T15:44:58.317Z,6.23
2022-12-23T15:47:43.011Z,6.97
2022-12-23T15:50:15.896Z,7.13
2022-12-23T15:52:44.634Z,7.00
2022-12-23T15:55:15.913Z,7.53
2022-12-23T15:57:50.017Z,8.33
2022-12-23T16:00:29.227Z,7.23
2022-12-23T16:03:00.928Z,5.93
2022-12-23T16:05:37.146Z,5.70
2022-12-23T16:08:16.311Z,4.73
2022-12-23T16:10:55.850Z,4.80
2022-12-23T16:13:23.624Z,5.60
2022-12-23T16:15:50.266Z,5.33
2022-12-23T16:18:19.539Z,5.50
2022-12-23T16:20:51.234Z,5.60
2022-12-23T16:23:17.909Z,5.23
2022-12-23T16:25:50.868Z,5.07
2022-12-23T16:28:29.628Z,5.90
2022-12-23T16:30:58.151Z,7.20
2022-12-23T16:33:45.084Z,8.63
2022-12-23T16:36:27.948Z,10.07
2022-12-23T16:39:09.384Z,10.00
2022-12-23T16:41:36.382Z,8.63
2022-12-23T16:44:04.118Z,7.37
2022-12-23T16:46:37.748Z,5.40
2022-12-23T16:49:08.247Z,5.13
2022-12-23T16:51:36.336Z,4.20
2022-12-23T16:54:02.823Z,3.23
2022-12-23T16:56:36.038Z,3.63
2022-12-23T16:59:03.089Z,3.70
2022-12-23T17:01:36.210Z,4.90
2022-12-23T17:04:04.132Z,5.57
2022-12-23T17:06:30.799Z,6.00
2022-12-23T17:08:57.480Z,5.93
2022-12-23T17:11:39.070Z,5.43
2022-12-23T17:14:11.836Z,5.50
2022-12-23T17:16:42.516Z,3.27
2022-12-23T17:19:09.149Z,3.07
2022-12-23T17:21:39.804Z,3.70
2022-12-23T17:24:12.073Z,2.93
2022-12-23T17:26:38.657Z,3.17
2022-12-23T17:29:05.832Z,3.50
2022-12-23T17:31:34.384Z,3.70
2022-12-23T17:34:02.065Z,3.73
2022-12-23T17:36:29.165Z,3.40
2022-12-23T17:38:55.873Z,3.40
2022-12-23T17:41:29.276Z,3.10
2022-12-23T17:43:57.599Z,3.10
2022-12-23T17:46:25.234Z,3.20
2022-12-23T17:48:52.567Z,3.90
2022-12-23T17:51:23.243Z,3.43
2022-12-23T17:53:56.930Z,2.97
2022-12-23T17:56:26.490Z,3.53
2022-12-23T17:58:53.442Z,3.47
2022-12-23T18:01:31.550Z,3.50
2022-12-23T18:03:59.452Z,4.33
2022-12-23T18:06:27.564Z,3.47
2022-12-23T18:08:54.222Z,4.43
2022-12-23T18:11:27.401Z,4.00
2022-12-23T18:13:54.246Z,4.20
2022-12-23T18:16:20.850Z,3.60
2022-12-23T18:18:47.530Z,3.33
2022-12-23T18:21:32.814Z,3.37
2022-12-23T18:24:00.061Z,4.17
2022-12-23T18:26:26.750Z,3.93
2022-12-23T18:28:54.363Z,4.20
2022-12-23T18:31:24.737Z,5.20
2022-12-23T18:33:51.471Z,4.87
2022-12-23T18:36:33.911Z,4.33
2022-12-23T18:39:00.631Z,3.90
2022-12-23T18:41:28.020Z,4.17
2022-12-23T18:43:55.227Z,3.63
2022-12-23T18:46:22.660Z,4.03
2022-12-23T18:48:49.589Z,3.90
2022-12-23T18:51:17.921Z,3.83
2022-12-23T18:53:45.286Z,3.67
2022-12-23T18:56:17.219Z,4.27
2022-12-23T18:58:43.768Z,4.47
2022-12-23T19:01:11.841Z,4.67
2022-12-23T19:03:38.511Z,4.90
2022-12-23T19:06:06.925Z,4.23
2022-12-23T19:08:35.066Z,4.40
2022-12-23T19:11:01.955Z,4.27
2022-12-23T19:13:28.450Z,4.70
2022-12-23T19:15:55.114Z,4.37
2022-12-23T19:18:21.999Z,4.53
2022-12-23T19:20:49.284Z,4.50
2022-12-23T19:23:15.969Z,4.83
2022-12-23T19:25:49.168Z,4.63
2022-12-23T19:28:21.788Z,5.83
2022-12-23T19:30:48.715Z,5.10
2022-12-23T19:33:15.533Z,4.83
2022-12-23T19:35:42.677Z,4.20
2022-12-23T19:38:09.633Z,5.77
2022-12-23T19:40:36.454Z,5.03
2022-12-23T19:43:03.973Z,5.50
2022-12-23T19:45:30.872Z,5.57
2022-12-23T19:47:57.727Z,5.27
2022-12-23T19:50:24.364Z,5.83
2022-12-23T19:52:51.667Z,5.73
2022-12-23T19:55:18.308Z,5.60
2022-12-23T19:57:44.824Z,5.20
2022-12-23T20:00:12.032Z,6.30
2022-12-23T20:02:38.661Z,4.90
2022-12-23T20:05:05.602Z,5.57
2022-12-23T20:07:32.113Z,4.57
2022-12-23T20:09:58.588Z,5.37
2022-12-23T20:12:26.435Z,5.40
2022-12-23T20:14:53.036Z,4.73
2022-12-23T20:17:19.545Z,4.40
2022-12-23T20:19:46.603Z,5.07
2022-12-23T20:22:13.257Z,5.90
2022-12-23T20:24:39.822Z,5.03
2022-12-23T20:27:11.288Z,5.83
2022-12-23T20:29:38.200Z,5.50
2022-12-23T20:32:05.079Z,6.47
2022-12-23T20:34:36.693Z,5.70
2022-12-23T20:37:06.318Z,5.27
2022-12-23T20:39:32.820Z,5.40
2022-12-23T20:41:59.353Z,5.10
2022-12-23T20:44:35.201Z,4.40
2022-12-23T20:47:02.489Z,5.03
2022-12-23T20:49:29.245Z,4.73
2022-12-23T20:51:55.699Z,5.40
2022-12-23T20:54:27.964Z,5.13
2022-12-23T20:56:58.645Z,4.87
2022-12-23T20:59:25.379Z,4.67
2022-12-23T21:01:52.170Z,4.50
2022-12-23T21:04:18.913Z,4.40
2022-12-23T21:06:45.545Z,4.60
2022-12-23T21:09:14.637Z,5.17
2022-12-23T21:11:43.682Z,5.40
2022-12-23T21:14:11.621Z,5.20
2022-12-23T21:16:39.093Z,4.90
2022-12-23T21:19:08.244Z,4.90
2022-12-23T21:21:35.639Z,5.03
2022-12-23T21:24:04.786Z,5.70
2022-12-23T21:26:33.222Z,5.40
2022-12-23T21:29:01.314Z,5.33
2022-12-23T21:31:29.560Z,6.13
2022-12-23T21:33:56.799Z,4.90
2022-12-23T21:36:28.917Z,5.33
2022-12-23T21:38:55.507Z,5.63
2022-12-23T21:41:29.891Z,4.63
2022-12-23T21:43:57.794Z,4.87
2022-12-23T21:46:24.924Z,4.63
2022-12-23T21:48:51.827Z,4.77
2022-12-23T21:51:24.617Z,4.30
2022-12-23T21:53:53.508Z,4.13
2022-12-23T21:56:24.353Z,4.03
2022-12-23T21:58:58.025Z,3.70
2022-12-23T22:01:25.875Z,3.77
2022-12-23T22:03:53.222Z,3.70
2022-12-23T22:06:28.724Z,3.83
2022-12-23T22:08:56.179Z,4.20
2022-12-23T22:11:25.531Z,4.27
2022-12-23T22:13:52.766Z,4.40
2022-12-23T22:16:22.300Z,4.43
2022-12-23T22:18:49.852Z,4.60
2022-12-23T22:21:22.029Z,4.70
2022-12-23T22:23:49.669Z,5.60
2022-12-23T22:26:24.697Z,6.33
2022-12-23T22:28:52.733Z,4.97
2022-12-23T22:31:22.236Z,5.67
2022-12-23T22:33:48.793Z,4.80
2022-12-23T22:36:16.426Z,5.07
2022-12-23T22:38:43.842Z,4.67
2022-12-23T22:41:10.973Z,5.40
2022-12-23T22:43:37.736Z,4.77
2022-12-23T22:46:04.660Z,4.93
2022-12-23T22:48:31.359Z,4.80
2022-12-23T22:51:05.157Z,4.33
2022-12-23T22:53:32.160Z,3.80
2022-12-23T22:56:02.995Z,5.17
2022-12-23T22:58:31.473Z,3.60
2022-12-23T23:00:58.227Z,4.27
2022-12-23T23:03:26.273Z,3.90
2022-12-23T23:06:05.049Z,4.70
2022-12-23T23:08:31.707Z,4.50
2022-12-23T23:11:01.057Z,4.23
2022-12-23T23:13:30.779Z,3.87
2022-12-23T23:15:57.507Z,4.13
2022-12-23T23:18:24.926Z,4.63
2022-12-23T23:20:51.503Z,4.80
2022-12-23T23:23:18.363Z,4.33
2022-12-23T23:25:45.030Z,4.50
2022-12-23T23:28:14.674Z,4.83
2022-12-23T23:30:41.138Z,5.20
2022-12-23T23:33:09.606Z,3.73
2022-12-23T23:35:36.632Z,5.13
2022-12-23T23:38:03.114Z,4.90
2022-12-23T23:40:29.576Z,5.03
2022-12-23T23:42:56.462Z,4.70
2022-12-23T23:45:22.935Z,4.63
2022-12-23T23:47:49.453Z,4.97
2022-12-23T23:50:16.152Z,4.53
2022-12-23T23:52:42.687Z,4.40
2022-12-23T23:55:09.406Z,4.83
2022-12-23T23:57:36.339Z,5.50
